createdAt,value
2022-11-23T00:00:17.082Z,0.00
2022-11-23T00:01:17.156Z,0.00
2022-11-23T00:02:17.135Z,0.00
2022-11-23T00:03:17.131Z,0.00
2022-11-23T00:04:17.032Z,0.00
2022-11-23T00:05:17.226Z,0.00
2022-11-23T00:06:17.003Z,0.00
2022-11-23T00:07:17.127Z,0.00
2022-11-23T00:08:16.976Z,0.00
2022-11-23T00:09:17.040Z,0.00
2022-11-23T00:10:16.949Z,0.00
2022-11-23T00:11:17.047Z,0.00
2022-11-23T00:12:16.924Z,0.00
2022-11-23T00:13:16.999Z,0.00
2022-11-23T00:14:16.901Z,0.00
2022-11-23T00:15:16.971Z,0.00
2022-11-23T00:16:16.870Z,0.00
2022-11-23T00:17:16.946Z,0.00
2022-11-23T00:18:16.844Z,0.00
2022-11-23T00:19:16.919Z,0.00
2022-11-23T00:20:16.819Z,0.00
2022-11-23T00:21:16.941Z,0.00
2022-11-23T00:22:16.792Z,0.00
2022-11-23T00:23:16.877Z,0.00
2022-11-23T00:24:16.767Z,0.00
2022-11-23T00:25:17.041Z,0.00
2022-11-23T00:26:16.740Z,0.00
2022-11-23T00:27:16.806Z,0.00
2022-11-23T00:28:16.825Z,0.00
2022-11-23T00:29:16.777Z,0.00
2022-11-23T00:30:16.686Z,0.00
2022-11-23T00:31:16.756Z,0.00
2022-11-23T00:32:16.657Z,0.00
2022-11-23T00:33:16.720Z,0.00
2022-11-23T00:34:16.629Z,0.00
2022-11-23T00:35:16.704Z,0.00
2022-11-23T00:36:16.605Z,0.00
2022-11-23T00:37:16.690Z,0.00
2022-11-23T00:38:16.581Z,0.00
2022-11-23T00:39:16.709Z,0.00
2022-11-23T00:40:16.549Z,0.00
2022-11-23T00:41:16.621Z,0.00
2022-11-23T00:42:16.525Z,0.00
2022-11-23T00:43:16.589Z,0.00
2022-11-23T00:44:16.502Z,0.00
2022-11-23T00:45:16.572Z,0.00
2022-11-23T00:46:16.472Z,0.00
2022-11-23T00:47:16.547Z,0.00
2022-11-23T00:48:16.445Z,0.00
2022-11-23T00:49:16.517Z,0.00
2022-11-23T00:50:16.418Z,0.00
2022-11-23T00:51:16.481Z,0.00
2022-11-23T00:52:16.391Z,0.00
2022-11-23T00:53:16.465Z,0.00
2022-11-23T00:54:16.364Z,0.00
2022-11-23T00:55:16.437Z,0.00
2022-11-23T00:56:16.337Z,0.00
2022-11-23T00:57:16.501Z,0.00
2022-11-23T00:58:16.309Z,0.00
2022-11-23T00:59:16.386Z,0.00
2022-11-23T01:00:16.284Z,0.00
2022-11-23T01:01:16.418Z,0.00
2022-11-23T01:02:16.257Z,0.00
2022-11-23T01:03:16.331Z,0.00
2022-11-23T01:04:16.234Z,0.00
2022-11-23T01:05:16.296Z,0.00
2022-11-23T01:06:16.211Z,0.00
2022-11-23T01:07:16.301Z,0.00
2022-11-23T01:08:16.179Z,0.00
2022-11-23T01:09:16.250Z,0.00
2022-11-23T01:10:16.154Z,0.00
2022-11-23T01:11:16.225Z,0.00
2022-11-23T01:12:16.127Z,0.00
2022-11-23T01:13:16.182Z,0.00
2022-11-23T01:14:16.098Z,0.00
2022-11-23T01:15:16.157Z,0.00
2022-11-23T01:16:20.846Z,0.00
2022-11-23T01:17:16.139Z,0.00
2022-11-23T01:18:16.044Z,0.00
2022-11-23T01:19:16.392Z,0.00
2022-11-23T01:20:16.017Z,0.00
2022-11-23T01:21:16.075Z,0.00
2022-11-23T01:22:15.989Z,0.00
2022-11-23T01:23:16.052Z,0.00
2022-11-23T01:24:15.965Z,0.00
2022-11-23T01:25:16.025Z,0.00
2022-11-23T01:26:15.941Z,0.00
2022-11-23T01:27:16.004Z,0.00
2022-11-23T01:28:15.911Z,0.00
2022-11-23T01:29:15.969Z,0.00
2022-11-23T01:30:15.885Z,0.00
2022-11-23T01:31:15.950Z,0.00
2022-11-23T01:32:15.856Z,0.00
2022-11-23T01:33:15.923Z,0.00
2022-11-23T01:34:15.953Z,0.00
2022-11-23T01:35:15.815Z,0.00
2022-11-23T01:36:15.886Z,0.00
2022-11-23T01:37:15.786Z,0.00
2022-11-23T01:38:18.429Z,0.00
2022-11-23T01:39:15.759Z,0.00
2022-11-23T01:40:15.823Z,0.00
2022-11-23T01:41:15.732Z,0.00
2022-11-23T01:42:18.020Z,0.00
2022-11-23T01:43:15.703Z,0.00
2022-11-23T01:44:15.769Z,0.00
2022-11-23T01:45:15.680Z,0.00
2022-11-23T01:46:15.800Z,0.00
2022-11-23T01:47:15.653Z,0.00
2022-11-23T01:48:15.728Z,0.00
2022-11-23T01:49:15.626Z,0.00
2022-11-23T01:50:15.792Z,0.00
2022-11-23T01:51:15.599Z,0.00
2022-11-23T01:52:15.675Z,0.00
2022-11-23T01:53:15.572Z,0.00
2022-11-23T01:54:15.635Z,0.00
2022-11-23T01:55:15.547Z,0.00
2022-11-23T01:56:15.607Z,0.00
2022-11-23T01:57:15.518Z,0.00
2022-11-23T01:58:15.584Z,0.00
2022-11-23T01:59:15.492Z,0.00
2022-11-23T02:00:18.656Z,0.00
2022-11-23T02:01:15.509Z,0.00
2022-11-23T02:02:15.551Z,0.00
2022-11-23T02:03:15.436Z,0.00
2022-11-23T02:04:15.581Z,0.00
2022-11-23T02:05:15.411Z,0.00
2022-11-23T02:06:15.492Z,0.00
2022-11-23T02:07:15.459Z,0.00
2022-11-23T02:08:15.446Z,0.00
2022-11-23T02:09:15.360Z,0.00
2022-11-23T02:10:15.432Z,0.00
2022-11-23T02:11:15.329Z,0.00
2022-11-23T02:12:15.393Z,0.00
2022-11-23T02:13:15.304Z,0.00
2022-11-23T02:14:19.123Z,0.00
2022-11-23T02:15:15.277Z,0.00
2022-11-23T02:16:15.341Z,0.00
2022-11-23T02:17:15.252Z,0.00
2022-11-23T02:18:15.326Z,0.00
2022-11-23T02:19:15.225Z,0.00
2022-11-23T02:20:15.291Z,0.00
2022-11-23T02:21:15.200Z,0.00
2022-11-23T02:22:15.260Z,0.00
2022-11-23T02:23:15.212Z,0.00
2022-11-23T02:24:15.245Z,0.00
2022-11-23T02:25:15.144Z,0.00
2022-11-23T02:26:15.217Z,0.00
2022-11-23T02:27:15.118Z,0.00
2022-11-23T02:28:15.198Z,0.00
2022-11-23T02:29:15.090Z,0.00
2022-11-23T02:30:15.165Z,0.00
2022-11-23T02:31:15.065Z,0.00
2022-11-23T02:32:15.229Z,0.00
2022-11-23T02:33:15.036Z,0.00
2022-11-23T02:34:15.111Z,0.00
2022-11-23T02:35:15.013Z,0.00
2022-11-23T02:36:15.085Z,0.00
2022-11-23T02:37:14.986Z,0.00
2022-11-23T02:38:15.105Z,0.00
2022-11-23T02:39:14.955Z,0.00
2022-11-23T02:40:15.040Z,0.00
2022-11-23T02:41:14.929Z,0.00
2022-11-23T02:42:14.998Z,0.00
2022-11-23T02:43:14.904Z,0.00
2022-11-23T02:44:14.966Z,0.00
2022-11-23T02:45:14.874Z,0.00
2022-11-23T02:46:14.939Z,0.00
2022-11-23T02:47:14.900Z,0.00
2022-11-23T02:48:14.924Z,0.00
2022-11-23T02:49:14.822Z,0.00
2022-11-23T02:50:14.885Z,0.00
2022-11-23T02:51:14.803Z,0.00
2022-11-23T02:52:14.971Z,0.00
2022-11-23T02:53:14.773Z,0.00
2022-11-23T02:54:14.832Z,0.00
2022-11-23T02:55:14.747Z,0.00
2022-11-23T02:56:14.814Z,0.00
2022-11-23T02:57:14.716Z,0.00
2022-11-23T02:58:14.790Z,0.00
2022-11-23T02:59:14.689Z,0.00
2022-11-23T03:00:14.763Z,0.00
2022-11-23T03:01:14.694Z,0.00
2022-11-23T03:02:14.738Z,0.00
2022-11-23T03:03:14.637Z,0.00
2022-11-23T03:04:14.811Z,0.00
2022-11-23T03:05:14.608Z,0.00
2022-11-23T03:06:14.713Z,0.00
2022-11-23T03:07:14.631Z,0.00
2022-11-23T03:08:14.665Z,0.00
2022-11-23T03:09:14.559Z,0.00
2022-11-23T03:10:14.630Z,0.00
2022-11-23T03:11:14.531Z,0.00
2022-11-23T03:12:14.592Z,0.00
2022-11-23T03:13:14.502Z,0.00
2022-11-23T03:14:14.625Z,0.00
2022-11-23T03:15:14.477Z,0.00
2022-11-23T03:16:15.544Z,0.00
2022-11-23T03:17:14.532Z,0.00
2022-11-23T03:18:14.444Z,0.00
2022-11-23T03:19:14.598Z,0.00
2022-11-23T03:20:14.413Z,0.00
2022-11-23T03:21:14.485Z,0.00
2022-11-23T03:22:14.385Z,0.00
2022-11-23T03:25:02.468Z,0.00
2022-11-23T03:26:05.365Z,0.00
2022-11-23T03:27:03.391Z,0.00
2022-11-23T03:28:03.455Z,0.00
2022-11-23T03:29:03.363Z,0.00
2022-11-23T03:30:03.428Z,0.00
2022-11-23T03:31:03.337Z,0.00
2022-11-23T03:32:03.407Z,0.00
2022-11-23T03:33:03.316Z,0.00
2022-11-23T03:34:03.373Z,0.00
2022-11-23T03:35:03.283Z,0.00
2022-11-23T03:36:03.348Z,0.00
2022-11-23T03:37:03.257Z,0.00
2022-11-23T03:38:03.323Z,0.00
2022-11-23T03:39:03.233Z,0.00
2022-11-23T03:40:03.294Z,0.00
2022-11-23T03:41:03.208Z,0.00
2022-11-23T03:42:03.269Z,0.00
2022-11-23T03:43:03.177Z,0.00
2022-11-23T03:44:03.258Z,0.00
2022-11-23T03:45:03.167Z,0.00
2022-11-23T03:46:03.241Z,0.00
2022-11-23T03:47:03.142Z,0.00
2022-11-23T03:48:03.204Z,0.00
2022-11-23T03:49:03.119Z,0.00
2022-11-23T03:50:03.191Z,0.00
2022-11-23T03:51:03.094Z,0.00
2022-11-23T03:52:03.149Z,0.00
2022-11-23T03:53:03.064Z,0.00
2022-11-23T03:54:03.135Z,0.00
2022-11-23T03:55:03.036Z,0.00
2022-11-23T03:56:03.099Z,0.00
2022-11-23T03:57:03.006Z,0.00
2022-11-23T03:58:03.081Z,0.00
2022-11-23T03:59:02.980Z,0.00
2022-11-23T04:00:03.055Z,0.00
2022-11-23T04:01:03.039Z,0.00
2022-11-23T04:02:03.029Z,0.00
2022-11-23T04:03:02.928Z,0.00
2022-11-23T04:04:02.991Z,0.00
2022-11-23T04:05:02.898Z,0.00
2022-11-23T04:06:02.966Z,0.00
2022-11-23T04:07:02.874Z,0.00
2022-11-23T04:08:02.967Z,0.00
2022-11-23T04:09:02.845Z,0.00
2022-11-23T04:10:02.919Z,0.00
2022-11-23T04:11:02.817Z,0.00
2022-11-23T04:12:02.893Z,0.00
2022-11-23T04:13:02.797Z,0.00
2022-11-23T04:14:02.863Z,0.00
2022-11-23T04:15:02.767Z,0.00
2022-11-23T04:16:02.833Z,0.00
2022-11-23T04:17:02.737Z,0.00
2022-11-23T04:18:02.814Z,0.00
2022-11-23T04:19:02.849Z,0.00
2022-11-23T04:20:02.701Z,0.00
2022-11-23T04:21:02.766Z,0.00
2022-11-23T04:22:02.674Z,0.00
2022-11-23T04:23:02.740Z,0.00
2022-11-23T04:24:02.645Z,0.00
2022-11-23T04:25:02.724Z,0.00
2022-11-23T04:26:02.619Z,0.00
2022-11-23T04:27:02.697Z,0.00
2022-11-23T04:28:02.595Z,0.00
2022-11-23T04:29:02.652Z,0.00
2022-11-23T04:30:02.571Z,0.00
2022-11-23T04:31:02.634Z,0.00
2022-11-23T04:32:02.539Z,0.00
2022-11-23T04:33:02.595Z,0.00
2022-11-23T04:34:02.511Z,0.00
2022-11-23T04:35:02.567Z,0.00
2022-11-23T04:36:02.488Z,0.00
2022-11-23T04:37:02.554Z,0.00
2022-11-23T04:38:02.462Z,0.00
2022-11-23T04:39:02.529Z,0.00
2022-11-23T04:40:02.429Z,0.00
2022-11-23T04:41:02.539Z,0.00
2022-11-23T04:42:02.409Z,0.00
2022-11-23T04:43:02.464Z,0.00
2022-11-23T04:44:02.379Z,0.00
2022-11-23T04:45:02.457Z,0.00
2022-11-23T04:46:02.352Z,0.00
2022-11-23T04:47:02.419Z,0.00
2022-11-23T04:48:02.324Z,0.00
2022-11-23T04:49:02.381Z,0.00
2022-11-23T04:50:02.437Z,0.00
2022-11-23T04:51:02.289Z,0.00
2022-11-23T04:52:02.384Z,0.00
2022-11-23T04:53:02.254Z,0.00
2022-11-23T04:54:02.318Z,0.00
2022-11-23T04:55:02.226Z,0.00
2022-11-23T04:56:02.289Z,0.00
2022-11-23T04:57:02.199Z,0.00
2022-11-23T04:58:02.273Z,0.00
2022-11-23T04:59:02.171Z,0.00
2022-11-23T05:00:02.250Z,0.00
2022-11-23T05:01:02.272Z,0.00
2022-11-23T05:02:02.212Z,0.00
2022-11-23T05:03:02.123Z,0.00
2022-11-23T05:04:02.183Z,0.00
2022-11-23T05:05:02.094Z,0.00
2022-11-23T05:06:02.166Z,0.00
2022-11-23T05:07:02.067Z,0.00
2022-11-23T05:08:02.140Z,0.00
2022-11-23T05:09:02.039Z,0.00
2022-11-23T05:10:02.122Z,0.00
2022-11-23T05:11:02.136Z,0.00
2022-11-23T05:12:02.004Z,0.00
2022-11-23T05:13:02.070Z,0.00
2022-11-23T05:14:01.977Z,0.00
2022-11-23T05:15:02.043Z,0.00
2022-11-23T05:16:01.950Z,0.00
2022-11-23T05:17:02.038Z,0.00
2022-11-23T05:18:01.926Z,0.00
2022-11-23T05:19:01.991Z,0.00
2022-11-23T05:20:01.898Z,0.00
2022-11-23T05:21:01.955Z,0.00
2022-11-23T05:22:01.870Z,0.00
2022-11-23T05:23:01.940Z,0.00
2022-11-23T05:24:01.843Z,0.00
2022-11-23T05:25:01.900Z,0.00
2022-11-23T05:26:01.952Z,0.00
2022-11-23T05:27:01.799Z,0.00
2022-11-23T05:28:16.598Z,0.00
2022-11-23T05:29:01.773Z,0.00
2022-11-23T05:30:01.863Z,0.00
2022-11-23T05:31:01.750Z,0.00
2022-11-23T05:32:01.821Z,0.00
2022-11-23T05:33:01.723Z,0.00
2022-11-23T05:34:01.844Z,0.00
2022-11-23T05:35:01.694Z,0.00
2022-11-23T05:36:01.758Z,0.00
2022-11-23T05:37:01.668Z,0.00
2022-11-23T05:38:01.729Z,0.00
2022-11-23T05:39:01.640Z,0.00
2022-11-23T05:40:01.757Z,0.00
2022-11-23T05:41:01.614Z,0.00
2022-11-23T05:42:01.682Z,0.00
2022-11-23T05:43:01.588Z,0.00
2022-11-23T05:44:01.651Z,0.00
2022-11-23T05:45:05.307Z,0.00
2022-11-23T05:46:01.599Z,0.00
2022-11-23T05:47:01.617Z,0.00
2022-11-23T05:48:01.659Z,0.00
2022-11-23T05:49:01.496Z,0.00
2022-11-23T05:50:01.607Z,0.00
2022-11-23T05:51:05.186Z,0.00
2022-11-23T05:52:01.537Z,0.00
2022-11-23T05:53:01.440Z,0.00
2022-11-23T05:54:01.504Z,0.00
2022-11-23T05:55:01.414Z,0.00
2022-11-23T05:56:01.488Z,0.00
2022-11-23T05:57:01.385Z,0.00
2022-11-23T05:58:01.454Z,0.00
2022-11-23T05:59:01.360Z,0.00
2022-11-23T06:00:01.422Z,0.00
2022-11-23T06:01:01.340Z,0.00
2022-11-23T06:02:01.396Z,0.00
2022-11-23T06:03:01.308Z,0.00
2022-11-23T06:04:01.413Z,0.00
2022-11-23T06:05:01.284Z,0.00
2022-11-23T06:06:01.342Z,0.00
2022-11-23T06:07:01.463Z,0.00
2022-11-23T06:08:01.252Z,0.00
2022-11-23T06:09:01.323Z,0.00
2022-11-23T06:10:01.375Z,0.00
2022-11-23T06:11:01.208Z,0.00
2022-11-23T06:12:01.272Z,0.00
2022-11-23T06:13:01.185Z,0.00
2022-11-23T06:14:01.255Z,0.00
2022-11-23T06:15:01.328Z,0.00
2022-11-23T06:16:01.142Z,0.00
2022-11-23T06:17:01.291Z,0.00
2022-11-23T06:18:01.114Z,4.00
2022-11-23T06:19:01.167Z,4.00
2022-11-23T06:20:01.083Z,0.00
2022-11-23T06:21:01.411Z,4.00
2022-11-23T06:22:01.105Z,4.00
2022-11-23T06:23:01.226Z,4.00
2022-11-23T06:24:01.032Z,8.00
2022-11-23T06:25:01.098Z,4.00
2022-11-23T06:26:01.002Z,8.00
2022-11-23T06:27:01.102Z,12.00
2022-11-23T06:28:00.979Z,12.00
2022-11-23T06:29:01.135Z,16.00
2022-11-23T06:30:01.099Z,16.00
2022-11-23T06:31:01.122Z,20.00
2022-11-23T06:32:00.923Z,24.00
2022-11-23T06:33:00.982Z,28.00
2022-11-23T06:34:00.895Z,32.00
2022-11-23T06:35:01.398Z,36.00
2022-11-23T06:36:00.998Z,40.00
2022-11-23T06:37:01.745Z,48.00
2022-11-23T06:38:01.013Z,56.00
2022-11-23T06:39:00.968Z,64.00
2022-11-23T06:40:00.823Z,72.00
2022-11-23T06:41:00.892Z,80.00
2022-11-23T06:42:16.786Z,84.00
2022-11-23T06:43:00.857Z,96.00
2022-11-23T06:44:00.773Z,104.00
2022-11-23T06:45:00.830Z,120.00
2022-11-23T06:46:00.871Z,128.00
2022-11-23T06:47:00.729Z,144.00
2022-11-23T06:48:00.791Z,152.00
2022-11-23T06:49:00.706Z,168.00
2022-11-23T06:50:00.814Z,180.00
2022-11-23T06:51:00.676Z,196.00
2022-11-23T06:52:00.737Z,208.00
2022-11-23T06:53:00.658Z,224.00
2022-11-23T06:54:00.723Z,240.00
2022-11-23T06:55:00.625Z,256.00
2022-11-23T06:56:00.705Z,272.00
2022-11-23T06:57:00.597Z,292.00
2022-11-23T06:58:00.792Z,308.00
2022-11-23T06:59:00.568Z,328.00
2022-11-23T07:00:00.692Z,344.00
2022-11-23T07:01:00.564Z,364.00
2022-11-23T07:02:02.518Z,384.00
2022-11-23T07:03:00.517Z,404.00
2022-11-23T07:04:00.666Z,424.00
2022-11-23T07:05:00.491Z,444.00
2022-11-23T07:06:00.744Z,464.00
2022-11-23T07:07:00.460Z,488.00
2022-11-23T07:08:00.525Z,508.00
2022-11-23T07:09:00.434Z,528.00
2022-11-23T07:10:05.369Z,548.00
2022-11-23T07:11:00.795Z,572.00
2022-11-23T07:12:00.402Z,592.00
2022-11-23T07:13:00.468Z,616.00
2022-11-23T07:14:00.368Z,636.00
2022-11-23T07:15:00.460Z,652.00
2022-11-23T07:16:00.635Z,672.00
2022-11-23T07:17:00.336Z,692.00
2022-11-23T07:18:00.401Z,716.00
2022-11-23T07:19:00.307Z,736.00
2022-11-23T07:20:00.533Z,756.00
2022-11-23T07:21:00.562Z,780.00
2022-11-23T07:22:01.844Z,804.00
2022-11-23T07:23:00.352Z,828.00
2022-11-23T07:24:00.311Z,848.00
2022-11-23T07:25:00.227Z,868.00
2022-11-23T07:26:00.282Z,888.00
2022-11-23T07:27:00.371Z,900.00
2022-11-23T07:28:01.406Z,912.00
2022-11-23T07:29:00.170Z,928.00
2022-11-23T07:30:00.679Z,944.00
2022-11-23T07:31:03.581Z,960.00
2022-11-23T07:32:00.131Z,980.00
2022-11-23T07:33:03.027Z,1000.00
2022-11-23T07:34:00.117Z,1016.00
2022-11-23T07:35:00.218Z,1036.00
2022-11-23T07:36:00.084Z,1052.00
2022-11-23T07:37:02.441Z,1068.00
2022-11-23T07:38:00.048Z,1088.00
2022-11-23T07:39:01.124Z,1104.00
2022-11-23T07:40:00.673Z,1124.00
2022-11-23T07:41:00.661Z,1144.00
2022-11-23T07:42:24.942Z,1160.00
2022-11-23T07:43:00.110Z,1176.00
2022-11-23T07:43:59.970Z,1192.00
2022-11-23T07:45:00.144Z,1212.00
2022-11-23T07:46:00.427Z,1224.00
2022-11-23T07:46:59.932Z,1240.00
2022-11-23T07:47:59.993Z,1256.00
2022-11-23T07:49:00.039Z,1268.00
2022-11-23T07:49:59.891Z,1288.00
2022-11-23T07:50:59.952Z,1304.00
2022-11-23T07:51:59.863Z,1320.00
2022-11-23T07:52:59.939Z,1332.00
2022-11-23T07:53:59.836Z,1352.00
2022-11-23T07:54:59.959Z,1372.00
2022-11-23T07:55:59.808Z,1388.00
2022-11-23T07:56:59.977Z,1400.00
2022-11-23T07:58:00.116Z,1412.00
2022-11-23T07:58:59.777Z,1424.00
2022-11-23T07:59:59.830Z,1440.00
2022-11-23T08:00:59.750Z,1456.00
2022-11-23T08:01:59.913Z,1472.00
2022-11-23T08:03:59.128Z,1504.00
2022-11-23T08:04:59.998Z,1524.00
2022-11-23T08:05:59.681Z,1536.00
2022-11-23T08:07:02.456Z,1552.00
2022-11-23T08:07:59.658Z,1564.00
2022-11-23T08:08:59.772Z,1576.00
2022-11-23T08:09:59.623Z,1592.00
2022-11-23T08:10:59.795Z,1604.00
2022-11-23T08:12:02.080Z,1616.00
2022-11-23T08:12:59.587Z,1632.00
2022-11-23T08:13:59.655Z,1648.00
2022-11-23T08:14:59.694Z,1664.00
2022-11-23T08:15:59.542Z,1684.00
2022-11-23T08:16:59.608Z,1696.00
2022-11-23T08:18:00.161Z,1712.00
2022-11-23T08:18:59.634Z,1728.00
2022-11-23T08:19:59.491Z,1748.00
2022-11-23T08:20:59.554Z,1764.00
2022-11-23T08:21:59.463Z,1780.00
2022-11-23T08:22:59.585Z,1796.00
2022-11-23T08:23:59.444Z,1812.00
2022-11-23T08:24:59.609Z,1824.00
2022-11-23T08:25:59.408Z,1840.00
2022-11-23T08:26:59.473Z,1848.00
2022-11-23T08:27:59.620Z,1860.00
2022-11-23T08:29:01.459Z,1876.00
2022-11-23T08:29:59.356Z,1884.00
2022-11-23T08:30:59.440Z,1900.00
2022-11-23T08:31:59.328Z,1912.00
2022-11-23T08:32:59.402Z,1928.00
2022-11-23T08:34:03.230Z,1944.00
2022-11-23T08:34:59.415Z,1956.00
2022-11-23T08:35:59.275Z,1972.00
2022-11-23T08:37:00.998Z,1984.00
2022-11-23T08:37:59.247Z,2000.00
2022-11-23T08:39:01.112Z,2028.00
2022-11-23T08:39:59.224Z,2088.00
2022-11-23T08:41:01.346Z,2172.00
2022-11-23T08:41:59.192Z,2268.00
2022-11-23T08:43:02.183Z,2396.00
2022-11-23T08:43:59.166Z,2540.00
2022-11-23T08:45:01.592Z,2740.00
2022-11-23T08:46:04.644Z,2972.00
2022-11-23T08:46:59.201Z,3268.00
2022-11-23T08:47:59.117Z,3608.00
2022-11-23T08:49:01.196Z,3988.00
2022-11-23T08:49:59.090Z,4380.00
2022-11-23T08:51:01.505Z,4788.00
2022-11-23T08:51:59.062Z,5216.00
2022-11-23T08:53:04.128Z,5728.00
2022-11-23T08:53:59.042Z,6300.00
2022-11-23T08:55:01.261Z,6716.00
2022-11-23T08:56:02.052Z,7116.00
2022-11-23T08:56:59.025Z,7472.00
2022-11-23T08:57:59.190Z,7632.00
2022-11-23T08:58:59.096Z,7732.00
2022-11-23T08:59:58.954Z,8016.00
2022-11-23T09:00:59.617Z,8500.00
2022-11-23T09:01:58.955Z,8772.00
2022-11-23T09:03:02.758Z,8936.00
2022-11-23T09:03:58.900Z,9136.00
2022-11-23T09:05:02.115Z,9212.00
2022-11-23T09:05:58.875Z,9204.00
2022-11-23T09:07:00.000Z,9172.00
2022-11-23T09:07:58.849Z,9140.00
2022-11-23T09:08:59.522Z,8988.00
2022-11-23T09:09:58.821Z,8760.00
2022-11-23T09:11:05.243Z,8584.00
2022-11-23T09:11:58.794Z,8784.00
2022-11-23T09:12:58.869Z,9000.00
2022-11-23T09:13:58.766Z,9072.00
2022-11-23T09:15:00.413Z,9100.00
2022-11-23T09:15:59.020Z,9104.00
2022-11-23T09:16:58.812Z,9072.00
2022-11-23T09:17:58.717Z,9004.00
2022-11-23T09:18:58.828Z,8988.00
2022-11-23T09:19:58.686Z,8880.00
2022-11-23T09:20:58.775Z,8644.00
2022-11-23T09:21:58.655Z,8532.00
2022-11-23T09:22:58.882Z,8528.00
2022-11-23T09:23:58.627Z,8260.00
2022-11-23T09:24:58.821Z,8076.00
2022-11-23T09:25:58.604Z,8132.00
2022-11-23T09:26:58.722Z,8080.00
2022-11-23T09:27:58.576Z,8048.00
2022-11-23T09:28:59.340Z,7900.00
2022-11-23T09:29:58.551Z,7732.00
2022-11-23T09:30:58.673Z,7532.00
2022-11-23T09:31:58.544Z,7440.00
2022-11-23T09:33:00.997Z,7352.00
2022-11-23T09:33:58.496Z,7176.00
2022-11-23T09:34:58.569Z,7136.00
2022-11-23T09:35:59.945Z,7096.00
2022-11-23T09:36:58.457Z,7128.00
2022-11-23T09:37:58.545Z,7244.00
2022-11-23T09:38:58.428Z,7192.00
2022-11-23T09:39:58.489Z,7040.00
2022-11-23T09:40:58.411Z,7064.00
2022-11-23T09:42:00.660Z,6676.00
2022-11-23T09:42:58.374Z,6424.00
2022-11-23T09:43:58.445Z,6176.00
2022-11-23T09:44:58.481Z,6056.00
2022-11-23T09:45:58.332Z,6096.00
2022-11-23T09:46:58.406Z,6228.00
2022-11-23T09:47:58.307Z,6324.00
2022-11-23T09:48:59.151Z,6360.00
2022-11-23T09:49:58.279Z,6184.00
2022-11-23T09:51:01.330Z,6100.00
2022-11-23T09:52:01.688Z,6160.00
2022-11-23T09:52:58.291Z,6048.00
2022-11-23T09:53:58.300Z,6060.00
2022-11-23T09:54:58.217Z,6156.00
2022-11-23T09:55:58.284Z,6136.00
2022-11-23T09:57:02.174Z,6168.00
2022-11-23T09:57:58.172Z,6132.00
2022-11-23T09:58:58.238Z,6148.00
2022-11-23T10:00:01.436Z,6148.00
2022-11-23T10:00:58.241Z,6080.00
2022-11-23T10:02:01.208Z,5884.00
2022-11-23T10:03:01.071Z,5720.00
2022-11-23T10:03:58.178Z,5652.00
2022-11-23T10:04:58.082Z,5752.00
2022-11-23T10:05:58.140Z,5800.00
2022-11-23T10:07:01.411Z,6120.00
2022-11-23T10:07:58.042Z,6132.00
2022-11-23T10:09:01.005Z,6288.00
2022-11-23T10:10:01.295Z,6552.00
2022-11-23T10:11:00.853Z,6696.00
2022-11-23T10:11:58.067Z,6868.00
2022-11-23T10:12:57.973Z,7156.00
2022-11-23T10:13:58.040Z,7044.00
2022-11-23T10:15:01.732Z,6960.00
2022-11-23T10:15:57.934Z,6800.00
2022-11-23T10:16:58.141Z,6764.00
2022-11-23T10:17:57.904Z,6468.00
2022-11-23T10:19:00.477Z,6740.00
2022-11-23T10:19:57.873Z,7208.00
2022-11-23T10:20:57.955Z,8708.00
2022-11-23T10:21:57.849Z,8388.00
2022-11-23T10:22:57.920Z,7228.00
2022-11-23T10:23:57.833Z,7068.00
2022-11-23T10:25:00.460Z,6640.00
2022-11-23T10:25:57.794Z,6788.00
2022-11-23T10:26:57.890Z,9184.00
2022-11-23T10:28:00.170Z,19392.00
2022-11-23T10:28:57.854Z,15712.00
2022-11-23T10:29:59.374Z,10056.00
2022-11-23T10:30:57.778Z,9096.00
2022-11-23T10:31:57.807Z,10176.00
2022-11-23T10:32:59.680Z,11516.00
2022-11-23T10:33:57.691Z,13756.00
2022-11-23T10:35:05.321Z,13568.00
2022-11-23T10:35:57.661Z,8252.00
2022-11-23T10:36:57.777Z,6396.00
2022-11-23T10:37:57.638Z,6472.00
2022-11-23T10:39:00.212Z,6536.00
2022-11-23T10:39:57.609Z,6444.00
2022-11-23T10:41:00.504Z,6476.00
2022-11-23T10:41:57.581Z,7904.00
2022-11-23T10:42:57.922Z,17376.00
2022-11-23T10:43:57.566Z,25888.00
2022-11-23T10:45:01.382Z,29824.00
2022-11-23T10:45:59.930Z,32096.00
2022-11-23T10:46:57.591Z,28896.00
2022-11-23T10:47:57.504Z,22304.00
2022-11-23T10:49:01.118Z,20672.00
2022-11-23T10:49:57.477Z,11796.00
2022-11-23T10:51:01.054Z,19040.00
2022-11-23T10:51:57.456Z,14240.00
2022-11-23T10:52:57.540Z,15712.00
2022-11-23T10:54:00.737Z,17824.00
2022-11-23T10:54:57.484Z,17952.00
2022-11-23T10:55:57.396Z,11172.00
2022-11-23T10:56:57.459Z,13704.00
2022-11-23T10:57:57.368Z,21600.00
2022-11-23T10:58:57.498Z,13412.00
2022-11-23T10:59:57.355Z,5052.00
2022-11-23T11:00:57.415Z,7140.00
2022-11-23T11:01:57.377Z,7096.00
2022-11-23T11:02:57.382Z,7116.00
2022-11-23T11:03:57.287Z,7260.00
2022-11-23T11:05:01.110Z,7324.00
2022-11-23T11:06:12.603Z,7564.00
2022-11-23T11:06:57.336Z,7728.00
2022-11-23T11:07:57.238Z,8040.00
2022-11-23T11:09:03.158Z,8108.00
2022-11-23T11:09:57.213Z,7880.00
2022-11-23T11:10:57.389Z,7816.00
2022-11-23T11:11:57.184Z,7752.00
2022-11-23T11:12:58.299Z,7604.00
2022-11-23T11:13:57.157Z,7612.00
2022-11-23T11:14:59.297Z,7924.00
2022-11-23T11:15:57.135Z,7780.00
2022-11-23T11:16:57.197Z,8104.00
2022-11-23T11:18:00.004Z,8356.00
2022-11-23T11:18:57.094Z,8564.00
2022-11-23T11:19:59.175Z,8752.00
2022-11-23T11:20:57.067Z,9140.00
2022-11-23T11:21:57.124Z,9508.00
2022-11-23T11:22:57.042Z,10148.00
2022-11-23T11:23:58.810Z,10476.00
2022-11-23T11:24:58.265Z,10572.00
2022-11-23T11:25:57.091Z,12760.00
2022-11-23T11:27:03.015Z,14528.00
2022-11-23T11:27:56.977Z,15712.00
2022-11-23T11:28:57.034Z,19104.00
2022-11-23T11:29:59.525Z,21632.00
2022-11-23T11:30:56.934Z,16896.00
2022-11-23T11:32:00.013Z,16672.00
2022-11-23T11:32:58.557Z,26592.00
2022-11-23T11:33:56.982Z,31136.00
2022-11-23T11:34:56.882Z,28896.00
2022-11-23T11:35:59.310Z,29728.00
2022-11-23T11:36:56.859Z,35424.00
2022-11-23T11:37:59.731Z,33024.00
2022-11-23T11:39:17.593Z,29120.00
2022-11-23T11:39:58.150Z,29824.00
2022-11-23T11:40:59.869Z,31360.00
2022-11-23T11:41:56.794Z,30720.00
2022-11-23T11:42:57.931Z,25344.00
2022-11-23T11:43:56.917Z,27232.00
2022-11-23T11:44:56.835Z,31328.00
2022-11-23T11:46:27.453Z,32256.00
2022-11-23T11:46:56.728Z,25408.00
2022-11-23T11:47:56.808Z,26464.00
2022-11-23T11:48:56.703Z,28512.00
2022-11-23T11:49:56.875Z,30912.00
2022-11-23T11:50:56.676Z,31200.00
2022-11-23T11:51:59.531Z,30272.00
2022-11-23T11:52:56.652Z,33952.00
2022-11-23T11:53:56.751Z,35520.00
2022-11-23T11:54:56.666Z,34528.00
2022-11-23T11:55:58.643Z,35744.00
2022-11-23T11:56:56.600Z,34400.00
2022-11-23T11:57:59.336Z,34400.00
2022-11-23T11:58:56.576Z,34432.00
2022-11-23T11:59:56.646Z,34624.00
2022-11-23T12:00:56.550Z,35296.00
2022-11-23T12:01:59.866Z,33888.00
2022-11-23T12:02:56.580Z,35328.00
2022-11-23T12:03:59.694Z,35360.00
2022-11-23T12:04:56.502Z,35648.00
2022-11-23T12:05:56.616Z,33376.00
2022-11-23T12:06:56.475Z,33248.00
2022-11-23T12:07:57.101Z,34368.00
2022-11-23T12:08:56.449Z,32320.00
2022-11-23T12:09:56.515Z,32512.00
2022-11-23T12:10:56.424Z,33536.00
2022-11-23T12:11:59.949Z,32192.00
2022-11-23T12:12:56.401Z,31200.00
2022-11-23T12:13:56.626Z,29568.00
2022-11-23T12:14:56.374Z,29568.00
2022-11-23T12:15:56.464Z,29536.00
2022-11-23T12:17:17.313Z,31104.00
2022-11-23T12:17:56.423Z,30464.00
2022-11-23T12:18:58.310Z,29344.00
2022-11-23T12:19:56.466Z,30464.00
2022-11-23T12:20:58.423Z,27744.00
2022-11-23T12:21:56.489Z,22176.00
2022-11-23T12:22:56.348Z,19648.00
2022-11-23T12:23:56.264Z,19360.00
2022-11-23T12:24:56.348Z,22592.00
2022-11-23T12:26:00.120Z,26720.00
2022-11-23T12:26:56.227Z,28128.00
2022-11-23T12:27:57.446Z,26208.00
2022-11-23T12:28:56.206Z,26944.00
2022-11-23T12:29:56.299Z,28864.00
2022-11-23T12:30:56.178Z,27744.00
2022-11-23T12:32:00.506Z,24032.00
2022-11-23T12:32:56.154Z,20768.00
2022-11-23T12:33:56.378Z,19360.00
2022-11-23T12:34:56.128Z,22176.00
2022-11-23T12:35:56.251Z,24544.00
2022-11-23T12:36:59.189Z,19744.00
2022-11-23T12:37:56.847Z,15264.00
2022-11-23T12:38:56.159Z,15232.00
2022-11-23T12:39:58.159Z,15424.00
2022-11-23T12:40:56.054Z,16384.00
2022-11-23T12:41:59.442Z,20512.00
2022-11-23T12:42:56.030Z,22144.00